createdAt,value
2019-04-03T00:00:50.679Z,2.60
2019-04-03T00:03:36.301Z,2.35
2019-04-03T00:06:22.357Z,2.58
2019-04-03T00:09:08.429Z,2.50
2019-04-03T00:11:54.740Z,2.47
2019-04-03T00:14:42.942Z,2.40
2019-04-03T00:17:29.217Z,2.47
2019-04-03T00:20:18.207Z,2.67
2019-04-03T00:23:03.036Z,2.33
2019-04-03T00:25:48.733Z,2.17
2019-04-03T00:28:34.996Z,2.50
2019-04-03T00:31:22.954Z,2.30
2019-04-03T00:34:08.354Z,2.20
2019-04-03T00:36:53.972Z,2.70
2019-04-03T00:39:40.395Z,2.58
2019-04-03T00:42:26.564Z,2.85
2019-04-03T00:45:12.386Z,2.77
2019-04-03T00:47:58.175Z,2.85
2019-04-03T00:50:44.335Z,2.40
2019-04-03T00:53:29.919Z,2.35
2019-04-03T00:56:16.088Z,2.40
2019-04-03T00:59:01.794Z,2.70
2019-04-03T01:01:48.184Z,2.45
2019-04-03T01:04:33.759Z,2.65
2019-04-03T01:07:19.571Z,2.47
2019-04-03T01:10:05.334Z,2.55
2019-04-03T01:12:51.577Z,2.52
2019-04-03T01:15:37.657Z,2.50
2019-04-03T01:18:23.611Z,2.50
2019-04-03T01:21:09.285Z,2.75
2019-04-03T01:23:55.411Z,2.22
2019-04-03T01:26:41.284Z,2.50
2019-04-03T01:29:27.231Z,2.50
2019-04-03T01:32:15.134Z,2.50
2019-04-03T01:35:00.467Z,2.22
2019-04-03T01:37:46.229Z,2.92
2019-04-03T01:40:32.011Z,2.72
2019-04-03T01:43:18.045Z,2.83
2019-04-03T01:46:03.952Z,2.60
2019-04-03T01:48:50.093Z,2.40
2019-04-03T01:51:36.363Z,2.50
2019-04-03T01:54:22.020Z,2.50
2019-04-03T01:57:07.715Z,2.40
2019-04-03T01:59:53.923Z,2.80
2019-04-03T02:02:40.509Z,2.20
2019-04-03T02:05:26.578Z,2.75
2019-04-03T02:08:14.735Z,2.80
2019-04-03T02:11:00.363Z,3.20
2019-04-03T02:13:46.984Z,2.65
2019-04-03T02:16:33.370Z,2.37
2019-04-03T02:19:19.281Z,2.85
2019-04-03T02:22:04.827Z,2.70
2019-04-03T02:24:51.127Z,2.62
2019-04-03T02:27:36.817Z,2.80
2019-04-03T02:30:22.965Z,2.77
2019-04-03T02:33:08.491Z,2.40
2019-04-03T02:35:55.528Z,2.33
2019-04-03T02:38:43.296Z,2.80
2019-04-03T02:41:30.324Z,2.90
2019-04-03T02:44:19.100Z,3.00
2019-04-03T02:47:04.140Z,3.05
2019-04-03T02:49:49.817Z,2.80
2019-04-03T02:52:35.555Z,2.70
2019-04-03T02:55:21.321Z,2.75
2019-04-03T02:58:07.987Z,2.67
2019-04-03T03:00:53.605Z,2.90
2019-04-03T03:03:40.659Z,2.80
2019-04-03T03:06:26.679Z,2.62
2019-04-03T03:09:13.591Z,3.08
2019-04-03T03:12:01.273Z,2.67
2019-04-03T03:14:47.728Z,2.72
2019-04-03T03:17:34.092Z,3.12
2019-04-03T03:20:22.765Z,2.70
2019-04-03T03:23:08.937Z,2.87
2019-04-03T03:25:56.044Z,2.72
2019-04-03T03:28:45.606Z,3.10
2019-04-03T03:31:59.433Z,3.00
2019-04-03T03:34:43.838Z,3.20
2019-04-03T03:37:11.857Z,2.80
2019-04-03T03:39:55.450Z,2.95
2019-04-03T03:42:41.909Z,2.80
2019-04-03T03:45:29.466Z,2.70
2019-04-03T03:48:16.321Z,2.62
2019-04-03T03:51:03.368Z,3.17
2019-04-03T03:53:49.741Z,3.37
2019-04-03T03:56:35.622Z,3.08
2019-04-03T03:59:21.722Z,2.98
2019-04-03T04:02:07.507Z,3.40
2019-04-03T04:04:54.278Z,3.10
2019-04-03T04:07:40.348Z,3.30
2019-04-03T04:10:28.564Z,3.20
2019-04-03T04:13:16.315Z,3.10
2019-04-03T04:16:04.898Z,2.92
2019-04-03T04:18:51.066Z,3.02
2019-04-03T04:21:37.533Z,3.05
2019-04-03T04:24:23.564Z,3.40
2019-04-03T04:27:09.937Z,3.08
2019-04-03T04:29:55.973Z,3.15
2019-04-03T04:32:41.947Z,3.55
2019-04-03T04:35:27.432Z,3.22
2019-04-03T04:38:13.412Z,3.40
2019-04-03T04:41:01.302Z,3.27
2019-04-03T04:43:47.019Z,3.17
2019-04-03T04:46:33.356Z,3.15
2019-04-03T04:49:19.226Z,3.65
2019-04-03T04:52:04.795Z,3.12
2019-04-03T04:54:50.951Z,3.50
2019-04-03T04:57:36.833Z,3.70
2019-04-03T05:00:23.119Z,3.60
2019-04-03T05:03:09.244Z,3.35
2019-04-03T05:05:57.235Z,3.33
2019-04-03T05:08:42.500Z,3.22
2019-04-03T05:11:28.652Z,3.50
2019-04-03T05:14:15.848Z,3.77
2019-04-03T05:17:01.976Z,3.60
2019-04-03T05:19:48.933Z,3.50
2019-04-03T05:22:35.092Z,3.90
2019-04-03T05:25:21.331Z,5.92
2019-04-03T05:28:06.972Z,5.00
2019-04-03T05:30:52.596Z,4.05
2019-04-03T05:33:41.222Z,4.58
2019-04-03T05:36:26.065Z,4.15
2019-04-03T05:39:12.477Z,4.20
2019-04-03T05:41:59.536Z,4.12
2019-04-03T05:44:45.933Z,3.90
2019-04-03T05:47:32.044Z,3.90
2019-04-03T05:50:17.937Z,4.58
2019-04-03T05:53:05.638Z,4.45
2019-04-03T05:55:51.768Z,4.15
2019-04-03T05:58:37.866Z,4.10
2019-04-03T06:01:23.811Z,4.17
2019-04-03T06:04:10.266Z,4.40
2019-04-03T06:06:56.733Z,4.10
2019-04-03T06:09:42.782Z,3.98
2019-04-03T06:12:28.550Z,4.25
2019-04-03T06:15:14.821Z,3.90
2019-04-03T06:18:00.843Z,4.00
2019-04-03T06:20:46.514Z,4.12
2019-04-03T06:23:32.356Z,3.98
2019-04-03T06:26:18.092Z,4.20
2019-04-03T06:29:04.226Z,4.03
2019-04-03T06:31:51.873Z,4.15
2019-04-03T06:34:38.889Z,3.92
2019-04-03T06:37:25.694Z,4.30
2019-04-03T06:40:12.128Z,4.53
2019-04-03T06:42:57.991Z,4.50
2019-04-03T06:45:44.377Z,4.45
2019-04-03T06:48:30.235Z,3.95
2019-04-03T06:51:16.857Z,4.35
2019-04-03T06:54:03.074Z,4.40
2019-04-03T06:56:48.880Z,4.20
2019-04-03T06:59:34.983Z,4.45
2019-04-03T07:02:21.453Z,4.25
2019-04-03T07:05:09.643Z,4.22
2019-04-03T07:07:55.419Z,4.15
2019-04-03T07:10:40.981Z,4.20
2019-04-03T07:13:29.587Z,3.98
2019-04-03T07:16:14.484Z,4.35
2019-04-03T07:19:00.707Z,4.80
2019-04-03T07:21:46.385Z,4.37
2019-04-03T07:24:32.876Z,4.15
2019-04-03T07:27:18.720Z,4.55
2019-04-03T07:30:06.027Z,4.28
2019-04-03T07:32:52.007Z,4.90
2019-04-03T07:35:39.260Z,4.53
2019-04-03T07:38:25.619Z,4.15
2019-04-03T07:41:11.291Z,4.30
2019-04-03T07:43:58.902Z,4.30
2019-04-03T07:46:45.083Z,4.20
2019-04-03T07:49:32.152Z,4.50
2019-04-03T07:52:17.896Z,5.00
2019-04-03T07:55:04.327Z,4.55
2019-04-03T07:57:50.624Z,4.35
2019-04-03T08:00:38.528Z,4.50
2019-04-03T08:03:24.508Z,4.33
2019-04-03T08:06:10.123Z,4.50
2019-04-03T08:09:06.929Z,4.62
2019-04-03T08:11:43.528Z,4.12
2019-04-03T08:14:29.392Z,4.53
2019-04-03T08:17:18.083Z,4.53
2019-04-03T08:20:04.192Z,4.60
2019-04-03T08:22:50.104Z,4.75
2019-04-03T08:25:36.209Z,5.10
2019-04-03T08:28:21.910Z,4.78
2019-04-03T08:31:10.859Z,4.85
2019-04-03T08:33:55.389Z,4.90
2019-04-03T08:36:41.755Z,4.85
2019-04-03T08:39:27.367Z,4.80
2019-04-03T08:42:13.059Z,4.72
2019-04-03T08:44:58.651Z,4.55
2019-04-03T08:47:46.323Z,4.80
2019-04-03T08:50:33.040Z,4.92
2019-04-03T08:53:18.959Z,4.92
2019-04-03T08:56:04.976Z,5.00
2019-04-03T08:58:50.803Z,5.37
2019-04-03T09:01:37.305Z,4.83
2019-04-03T09:04:23.226Z,5.17
2019-04-03T09:07:09.290Z,5.20
2019-04-03T09:09:54.911Z,4.60
2019-04-03T09:12:40.706Z,4.85
2019-04-03T09:15:28.245Z,4.85
2019-04-03T09:18:14.019Z,4.95
2019-04-03T09:21:00.116Z,4.95
2019-04-03T09:23:45.971Z,5.20
2019-04-03T09:26:36.681Z,5.72
2019-04-03T09:29:20.103Z,5.15
2019-04-03T09:32:06.343Z,4.85
2019-04-03T09:34:51.978Z,5.15
2019-04-03T09:37:38.732Z,5.00
2019-04-03T09:40:24.971Z,5.20
2019-04-03T09:43:10.693Z,4.95
2019-04-03T09:45:59.161Z,5.05
2019-04-03T09:48:43.915Z,4.95
2019-04-03T09:51:30.580Z,5.08
2019-04-03T09:54:16.783Z,5.50
2019-04-03T09:57:04.880Z,5.35
2019-04-03T09:59:50.801Z,5.12
2019-04-03T10:02:38.019Z,4.83
2019-04-03T10:05:23.850Z,5.03
2019-04-03T10:08:09.917Z,5.03
2019-04-03T10:10:55.890Z,5.28
2019-04-03T10:13:41.753Z,5.20
2019-04-03T10:16:28.013Z,5.08
2019-04-03T10:19:14.667Z,5.05
2019-04-03T10:22:00.921Z,5.10
2019-04-03T10:24:46.577Z,5.28
2019-04-03T10:27:32.507Z,5.20
2019-04-03T10:30:20.789Z,5.22
2019-04-03T10:33:07.136Z,5.30
2019-04-03T10:35:52.711Z,5.15
2019-04-03T10:38:40.430Z,5.42
2019-04-03T10:41:28.707Z,4.83
2019-04-03T10:44:13.924Z,5.22
2019-04-03T10:46:59.483Z,5.10
2019-04-03T10:49:45.241Z,5.05
2019-04-03T10:52:32.295Z,5.58
2019-04-03T10:55:18.242Z,5.20
2019-04-03T10:58:04.971Z,5.17
2019-04-03T11:00:52.604Z,5.20
2019-04-03T11:03:38.565Z,5.20
2019-04-03T11:06:24.286Z,5.20
2019-04-03T11:09:10.264Z,5.05
2019-04-03T11:11:56.339Z,5.65
2019-04-03T11:14:42.484Z,5.83
2019-04-03T11:17:28.492Z,6.03
2019-04-03T11:20:15.082Z,6.00
2019-04-03T11:23:06.323Z,5.83
2019-04-03T11:25:48.586Z,5.53
2019-04-03T11:28:37.264Z,6.25
2019-04-03T11:31:27.086Z,5.80
2019-04-03T11:34:10.536Z,6.08
2019-04-03T11:36:57.988Z,5.47
2019-04-03T11:39:46.241Z,5.67
2019-04-03T11:42:32.094Z,5.58
2019-04-03T11:45:18.344Z,5.72
2019-04-03T11:48:04.184Z,5.33
2019-04-03T11:50:50.238Z,5.95
2019-04-03T11:53:36.323Z,6.08
2019-04-03T11:56:22.047Z,6.25
2019-04-03T11:59:10.668Z,5.72
2019-04-03T12:01:56.575Z,6.15
2019-04-03T12:04:44.453Z,5.70
2019-04-03T12:07:32.720Z,5.72
2019-04-03T12:10:18.366Z,6.03
2019-04-03T12:13:04.728Z,5.90
2019-04-03T12:15:53.219Z,6.15
2019-04-03T12:18:38.683Z,6.10
2019-04-03T12:21:24.859Z,5.55
2019-04-03T12:24:11.067Z,6.22
2019-04-03T12:26:56.810Z,6.20
2019-04-03T12:29:43.276Z,5.85
2019-04-03T12:32:37.007Z,6.20
2019-04-03T12:35:17.495Z,5.87
2019-04-03T12:38:03.515Z,5.90
2019-04-03T12:40:49.724Z,6.17
2019-04-03T12:43:35.542Z,6.15
2019-04-03T12:46:40.981Z,6.33
2019-04-03T12:49:26.833Z,5.83
2019-04-03T12:52:14.150Z,6.55
2019-04-03T12:55:00.834Z,6.03
2019-04-03T12:57:46.483Z,6.33
2019-04-03T13:00:32.716Z,6.20
2019-04-03T13:03:19.356Z,6.20
2019-04-03T13:06:06.975Z,6.12
2019-04-03T13:08:53.295Z,6.37
2019-04-03T13:11:39.759Z,5.92
2019-04-03T13:14:27.131Z,5.80
2019-04-03T13:17:14.542Z,6.05
2019-04-03T13:20:04.328Z,6.10
2019-04-03T13:22:49.979Z,6.12
2019-04-03T13:25:36.116Z,6.17
2019-04-03T13:28:21.923Z,6.28
2019-04-03T13:31:07.830Z,6.40
2019-04-03T13:33:56.925Z,6.50
2019-04-03T13:36:43.519Z,6.10
2019-04-03T13:39:29.156Z,6.67
2019-04-03T13:42:14.768Z,6.58
2019-04-03T13:45:00.376Z,6.47
2019-04-03T13:47:47.028Z,6.17
2019-04-03T13:50:33.644Z,5.97
2019-04-03T13:53:20.615Z,6.00
2019-04-03T13:56:10.246Z,5.83
2019-04-03T13:58:55.101Z,6.28
2019-04-03T14:01:41.794Z,6.03
2019-04-03T14:04:29.117Z,6.25
2019-04-03T14:07:15.654Z,6.00
2019-04-03T14:10:02.261Z,5.62
2019-04-03T14:12:48.935Z,5.72
2019-04-03T14:15:36.006Z,6.15
2019-04-03T14:18:22.859Z,5.92
2019-04-03T14:21:09.033Z,5.42
2019-04-03T14:23:56.808Z,5.90
2019-04-03T14:26:45.178Z,5.95
2019-04-03T14:29:31.578Z,5.62
2019-04-03T14:32:19.844Z,6.30
2019-04-03T14:35:31.678Z,5.85
2019-04-03T14:37:53.283Z,6.05
2019-04-03T14:40:43.505Z,6.08
2019-04-03T14:43:29.153Z,6.10
2019-04-03T14:46:17.307Z,6.03
2019-04-03T14:49:03.242Z,6.08
2019-04-03T14:51:49.655Z,5.95
2019-04-03T14:54:36.025Z,6.05
2019-04-03T14:57:23.704Z,5.85
2019-04-03T15:00:25.283Z,6.72
2019-04-03T15:02:59.387Z,6.08
2019-04-03T15:05:45.639Z,6.80
2019-04-03T15:08:31.368Z,6.20
2019-04-03T15:11:18.058Z,6.00
2019-04-03T15:14:05.451Z,7.70
2019-04-03T15:16:51.074Z,14.03
2019-04-03T15:19:37.151Z,16.65
2019-04-03T15:22:22.952Z,11.68
2019-04-03T15:25:08.882Z,11.43
2019-04-03T15:27:54.888Z,12.98
2019-04-03T15:30:43.390Z,12.23
2019-04-03T15:33:28.944Z,11.45
2019-04-03T15:36:14.890Z,12.13
2019-04-03T15:39:00.779Z,11.28
2019-04-03T15:41:46.319Z,11.60
2019-04-03T15:44:32.037Z,12.07
2019-04-03T15:47:20.658Z,10.93
2019-04-03T15:50:07.394Z,11.90
2019-04-03T15:52:53.648Z,10.45
2019-04-03T15:55:39.596Z,11.15
2019-04-03T15:58:27.095Z,9.60
2019-04-03T16:01:13.095Z,10.72
2019-04-03T16:04:00.031Z,9.95
2019-04-03T16:06:46.173Z,10.58
2019-04-03T16:09:32.232Z,9.25
2019-04-03T16:12:18.945Z,9.63
2019-04-03T16:15:08.514Z,9.45
2019-04-03T16:17:54.378Z,9.38
2019-04-03T16:20:40.428Z,9.18
2019-04-03T16:23:26.332Z,9.23
2019-04-03T16:26:12.602Z,9.43
2019-04-03T16:28:58.709Z,9.33
2019-04-03T16:31:45.099Z,9.28
2019-04-03T16:34:31.271Z,8.38
2019-04-03T16:37:16.805Z,9.25
2019-04-03T16:40:05.006Z,9.58
2019-04-03T16:42:53.656Z,9.38
2019-04-03T16:45:40.032Z,9.43
2019-04-03T16:48:25.665Z,9.10
2019-04-03T16:51:11.476Z,8.75
2019-04-03T16:53:59.530Z,8.73
2019-04-03T16:56:45.283Z,8.05
2019-04-03T16:59:31.799Z,8.48
2019-04-03T17:02:18.942Z,8.25
2019-04-03T17:05:06.217Z,8.68
2019-04-03T17:07:54.321Z,8.75
2019-04-03T17:10:41.077Z,9.05
2019-04-03T17:13:27.219Z,8.20
2019-04-03T17:16:15.069Z,7.40
2019-04-03T17:19:01.207Z,7.35
2019-04-03T17:21:47.322Z,8.00
2019-04-03T17:24:42.342Z,7.70
2019-04-03T17:27:20.712Z,7.05
2019-04-03T17:30:07.407Z,7.47
2019-04-03T17:32:54.162Z,7.20
2019-04-03T17:35:40.359Z,7.40
2019-04-03T17:38:26.356Z,6.85
2019-04-03T17:41:12.539Z,7.45
2019-04-03T17:43:58.084Z,8.80
2019-04-03T17:46:44.015Z,7.75
2019-04-03T17:49:30.084Z,7.53
2019-04-03T17:52:16.223Z,7.65
2019-04-03T17:55:01.885Z,7.58
2019-04-03T17:57:47.616Z,7.00
2019-04-03T18:00:33.603Z,7.42
2019-04-03T18:03:19.503Z,6.75
2019-04-03T18:06:06.105Z,7.33
2019-04-03T18:08:52.367Z,7.42
2019-04-03T18:11:38.449Z,6.95
2019-04-03T18:14:26.561Z,7.42
2019-04-03T18:17:14.839Z,7.05
2019-04-03T18:20:01.196Z,7.03
2019-04-03T18:22:50.431Z,6.95
2019-04-03T18:25:39.079Z,6.78
2019-04-03T18:28:35.496Z,6.12
2019-04-03T18:31:28.042Z,6.55
2019-04-03T18:34:16.175Z,6.53
2019-04-03T18:37:04.082Z,6.08
2019-04-03T18:39:51.448Z,6.72
2019-04-03T18:42:37.595Z,6.33
2019-04-03T18:45:25.361Z,6.08
2019-04-03T18:48:11.003Z,6.95
2019-04-03T18:50:56.627Z,6.58
2019-04-03T18:53:42.491Z,6.37
2019-04-03T18:56:28.530Z,6.72
2019-04-03T18:59:15.361Z,6.28
2019-04-03T19:02:03.563Z,6.83
2019-04-03T19:05:01.073Z,6.60
2019-04-03T19:07:38.507Z,6.65
2019-04-03T19:10:24.541Z,6.53
2019-04-03T19:13:13.610Z,6.65
2019-04-03T19:16:01.901Z,6.37
2019-04-03T19:18:48.588Z,6.10
2019-04-03T19:21:35.843Z,6.50
2019-04-03T19:24:24.446Z,6.37
2019-04-03T19:27:09.774Z,6.00
2019-04-03T19:29:55.339Z,6.47
2019-04-03T19:32:43.349Z,6.65
2019-04-03T19:35:29.655Z,6.37
2019-04-03T19:38:15.614Z,6.03
2019-04-03T19:41:01.292Z,6.05
2019-04-03T19:43:47.510Z,6.40
2019-04-03T19:46:33.571Z,6.37
2019-04-03T19:49:19.911Z,6.60
2019-04-03T19:52:06.084Z,5.78
2019-04-03T19:54:53.207Z,6.00
2019-04-03T19:57:38.986Z,6.40
2019-04-03T20:00:24.992Z,6.10
2019-04-03T20:03:13.794Z,6.40
2019-04-03T20:05:59.873Z,5.97
2019-04-03T20:08:45.961Z,6.25
2019-04-03T20:11:32.325Z,6.08
2019-04-03T20:14:19.517Z,6.05
2019-04-03T20:17:05.882Z,6.08
2019-04-03T20:19:51.574Z,6.47
2019-04-03T20:22:40.638Z,6.17
2019-04-03T20:25:24.995Z,6.25
2019-04-03T20:28:11.322Z,6.45
2019-04-03T20:30:57.227Z,5.95
2019-04-03T20:33:43.007Z,6.28
2019-04-03T20:36:29.244Z,6.40
2019-04-03T20:39:15.093Z,6.25
2019-04-03T20:42:03.160Z,6.00
2019-04-03T20:44:48.864Z,5.80
2019-04-03T20:47:34.915Z,6.10
2019-04-03T20:50:21.175Z,6.03
2019-04-03T20:53:07.317Z,5.83
2019-04-03T20:55:53.079Z,5.67
2019-04-03T20:58:40.708Z,6.10
2019-04-03T21:01:26.899Z,6.05
2019-04-03T21:04:14.930Z,5.95
2019-04-03T21:07:00.654Z,6.00
2019-04-03T21:09:46.311Z,5.80
2019-04-03T21:12:32.122Z,6.00
2019-04-03T21:15:18.272Z,5.80
2019-04-03T21:18:04.053Z,5.95
2019-04-03T21:20:50.095Z,6.00
2019-04-03T21:23:37.388Z,5.67
2019-04-03T21:26:23.494Z,5.90
2019-04-03T21:29:09.695Z,5.55
2019-04-03T21:31:56.738Z,5.83
2019-04-03T21:34:43.747Z,5.80
2019-04-03T21:37:30.846Z,5.85
2019-04-03T21:40:17.035Z,5.80
2019-04-03T21:43:03.108Z,6.03
2019-04-03T21:45:49.455Z,6.12
2019-04-03T21:48:35.684Z,5.72
2019-04-03T21:51:22.140Z,5.97
2019-04-03T21:54:08.305Z,5.45
2019-04-03T21:56:54.516Z,5.83
2019-04-03T21:59:41.750Z,5.70
2019-04-03T22:02:28.402Z,5.72
2019-04-03T22:05:14.699Z,5.80
2019-04-03T22:08:00.921Z,5.62
2019-04-03T22:10:50.274Z,5.70
2019-04-03T22:13:38.226Z,5.53
2019-04-03T22:16:24.039Z,5.92
2019-04-03T22:19:10.191Z,6.00
2019-04-03T22:21:55.959Z,6.00
2019-04-03T22:24:42.187Z,5.90
2019-04-03T22:27:28.265Z,5.72
2019-04-03T22:30:14.539Z,5.47
2019-04-03T22:33:00.618Z,5.78
2019-04-03T22:35:47.379Z,5.90
2019-04-03T22:38:36.864Z,5.78
2019-04-03T22:41:22.424Z,6.10
2019-04-03T22:44:08.610Z,5.60
2019-04-03T22:46:54.923Z,5.80
2019-04-03T22:49:41.052Z,5.80
2019-04-03T22:52:27.402Z,5.28
2019-04-03T22:55:14.806Z,5.20
2019-04-03T22:58:01.272Z,5.47
2019-04-03T23:00:47.408Z,5.15
2019-04-03T23:03:33.878Z,5.40
2019-04-03T23:06:20.484Z,5.40
2019-04-03T23:09:07.416Z,6.05
2019-04-03T23:11:53.417Z,5.33
2019-04-03T23:14:39.921Z,6.17
2019-04-03T23:17:26.177Z,4.97
2019-04-03T23:20:12.331Z,5.67
2019-04-03T23:22:58.471Z,6.00
2019-04-03T23:25:44.351Z,5.40
2019-04-03T23:28:33.591Z,5.65
2019-04-03T23:31:18.279Z,5.33
2019-04-03T23:34:04.058Z,5.95
2019-04-03T23:36:50.472Z,5.72
2019-04-03T23:39:36.675Z,5.50
2019-04-03T23:42:23.084Z,5.20
2019-04-03T23:45:10.944Z,5.50
2019-04-03T23:47:57.103Z,5.83
2019-04-03T23:50:43.349Z,5.37
2019-04-03T23:53:31.794Z,5.95
2019-04-03T23:56:17.426Z,5.58
2019-04-03T23:59:03.786Z,5.80
